Time;durP1;ratioP1;P1;durP2;ratioP2;P2;SDS_P1;SDS_P2;PMS_P1;PMS_P2;Temp;Humidity;BMP_temperature;BMP_pressure;BME280_temperature;BME280_humidity;BME280_pressure;Samples;Min_cycle;Max_cycle;Signal;HPM_P1;HPM_P2
2021/12/14 00:00:39;;;;;;;;;;;;;;;;;;2211564;59;1240;-71
2021/12/14 00:03:18;;;;;;;;;;;;;;;;;;2213948;59;1939;-71
2021/12/14 00:05:51;;;;;;;;;;;;;;;;;;2211508;59;1613;-71
2021/12/14 00:08:26;;;;;;;;;;;;;;;;;;2213912;67;1238;-71
2021/12/14 00:13:54;;;;;;;;;;;;;;;;;;2213390;59;1518;-71
2021/12/14 00:16:27;;;;;;;;;;;;;;;;;;2212897;66;1158;-71
2021/12/14 00:19:03;;;;;;;;;;;;;;;;;;2212514;59;1876;-71
2021/12/14 00:21:37;;;;;;;;;;;;;;;;;;2211955;59;1972;-71
2021/12/14 00:24:10;;;;;;;;;;;;;;;;;;2211794;67;1292;-71
2021/12/14 00:26:46;;;;;;;;;;;;;;;;;;2211454;59;1081;-71
2021/12/14 00:29:20;;;;;;;;;;;;;;;;;;2212288;59;1492;-71
2021/12/14 00:31:54;;;;;;;;;;;;;;;;;;2212437;59;1363;-71
2021/12/14 00:34:39;;;;;;;;;;;;;;;;;;2211681;59;1188;-71
2021/12/14 00:37:14;;;;;;;;;;;;;;;;;;2211660;67;1114;-70
2021/12/14 00:39:48;;;;;;;;;;;;;;;;;;2211423;59;1223;-71
2021/12/14 00:42:22;;;;;;;;;;;;;;;;;;2211581;67;1943;-71
2021/12/14 00:44:55;;;;;;;;;;;;;;;;;;2212975;66;1124;-71
2021/12/14 00:47:28;;;;;;;;;;;;;;;;;;2211125;59;1103;-71
2021/12/14 00:50:04;;;;;;;;;;;;;;;;;;2213238;59;1260;-70
2021/12/14 00:52:37;;;;;;;;;;;;;;;;;;2210639;67;1271;-71
2021/12/14 00:55:12;;;;;;;;;;;;;;;;;;2211818;67;1191;-71
2021/12/14 00:57:46;;;;;;;;;;;;;;;;;;2213112;67;1303;-71
2021/12/14 01:00:20;;;;;;;;;;;;;;;;;;2212462;59;1301;-71
2021/12/14 01:02:53;;;;;;;;;;;;;;;;;;2212730;67;2066;-71
2021/12/14 01:05:32;;;;;;;;;;;;;;;;;;2211455;67;1128;-71
2021/12/14 01:08:08;;;;;;;;;;;;;;;;;;2212287;67;1192;-71
2021/12/14 01:10:45;;;;;;;;;;;;;;;;;;2214068;67;1038;-71
2021/12/14 01:13:21;;;;;;;;;;;;;;;;;;2213008;59;1319;-71
2021/12/14 01:16:13;;;;;;;;;;;;;;;;;;2214885;66;1481;-71
2021/12/14 01:18:51;;;;;;;;;;;;;;;;;;2211907;59;1542;-71
2021/12/14 01:21:44;;;;;;;;;;;;;;;;;;2212404;59;1637;-70
2021/12/14 01:24:35;;;;;;;;;;;;;;;;;;2211107;59;1383;-71
2021/12/14 01:27:11;;;;;;;;;;;;;;;;;;2211988;67;1185;-71
2021/12/14 01:29:47;;;;;;;;;;;;;;;;;;2213130;59;1514;-71
2021/12/14 01:32:21;;;;;;;;;;;;;;;;;;2212152;59;1773;-71
2021/12/14 01:34:54;;;;;;;;;;;;;;;;;;2213234;67;1144;-71
2021/12/14 01:37:40;;;;;;;;;;;;;;;;;;2212056;67;1163;-71
2021/12/14 01:40:19;;;;;;;;;;;;;;;;;;2212605;67;1250;-71
2021/12/14 01:42:52;;;;;;;;;;;;;;;;;;2211872;67;1921;-70
2021/12/14 01:45:27;;;;;;;;;;;;;;;;;;2211860;59;1183;-71
2021/12/14 01:48:01;;;;;;;;;;;;;;;;;;2213081;67;1384;-70
2021/12/14 01:50:36;;;;;;;;;;;;;;;;;;2207986;53;3613;-72
2021/12/14 01:53:14;;;;;;;;;;;;;;;;;;2209647;59;1335;-72
2021/12/14 01:55:51;;;;;;;;;;;;;;;;;;2207628;67;1246;-72
2021/12/14 01:58:26;;;;;;;;;;;;;;;;;;2210330;67;1181;-72
2021/12/14 02:01:01;;;;;;;;;;;;;;;;;;2207369;59;1409;-72
2021/12/14 02:03:36;;;;;;;;;;;;;;;;;;2207468;59;1980;-72
2021/12/14 02:06:09;;;;;;;;;;;;;;;;;;2207527;59;1168;-72
2021/12/14 02:08:45;;;;;;;;;;;;;;;;;;2204726;59;1555;-72
2021/12/14 02:11:18;;;;;;;;;;;;;;;;;;2207636;59;1116;-72
2021/12/14 02:13:55;;;;;;;;;;;;;;;;;;2207906;59;1125;-72
2021/12/14 02:16:28;;;;;;;;;;;;;;;;;;2207486;67;1210;-72
2021/12/14 02:19:03;;;;;;;;;;;;;;;;;;2207770;59;1309;-72
2021/12/14 02:21:39;;;;;;;;;;;;;;;;;;2207428;67;1967;-72
2021/12/14 02:24:13;;;;;;;;;;;;;;;;;;2207366;59;1930;-72
2021/12/14 02:26:46;;;;;;;;;;;;;;;;;;2207192;59;1321;-72
2021/12/14 02:29:23;;;;;;;;;;;;;;;;;;2207312;59;1508;-72
2021/12/14 02:32:02;;;;;;;;;;;;;;;;;;2207471;59;1701;-72
2021/12/14 02:34:39;;;;;;;;;;;;;;;;;;2207084;59;1118;-72
2021/12/14 02:37:16;;;;;;;;;;;;;;;;;;2207658;67;1157;-72
2021/12/14 02:40:02;;;;;;;;;;;;;;;;;;2207474;67;1201;-72
2021/12/14 02:42:35;;;;;;;;;;;;;;;;;;2207666;59;1990;-72
2021/12/14 02:45:09;;;;;;;;;;;;;;;;;;2207538;59;1118;-72
2021/12/14 02:47:42;;;;;;;;;;;;;;;;;;2207964;59;1390;-72
2021/12/14 02:50:16;;;;;;;;;;;;;;;;;;2208488;59;1171;-72
2021/12/14 02:52:52;;;;;;;;;;;;;;;;;;2208698;59;1122;-72
2021/12/14 02:55:27;;;;;;;;;;;;;;;;;;2208154;59;1194;-72
2021/12/14 02:58:05;;;;;;;;;;;;;;;;;;2207537;59;1088;-72
2021/12/14 03:00:40;;;;;;;;;;;;;;;;;;2207862;59;1260;-72
2021/12/14 03:03:14;;;;;;;;;;;;;;;;;;2207675;59;1935;-72
2021/12/14 03:05:49;;;;;;;;;;;;;;;;;;2207637;59;1083;-72
2021/12/14 03:08:26;;;;;;;;;;;;;;;;;;2207996;67;1130;-72
2021/12/14 03:11:10;;;;;;;;;;;;;;;;;;2204374;59;2000;-72
2021/12/14 03:13:46;;;;;;;;;;;;;;;;;;2207726;59;1565;-72
2021/12/14 03:16:20;;;;;;;;;;;;;;;;;;2207630;59;1197;-72
2021/12/14 03:18:54;;;;;;;;;;;;;;;;;;2208283;59;1409;-72
2021/12/14 03:21:29;;;;;;;;;;;;;;;;;;2207865;67;1851;-72
2021/12/14 03:24:06;;;;;;;;;;;;;;;;;;2208234;59;1937;-72
2021/12/14 03:26:41;;;;;;;;;;;;;;;;;;2207461;59;1239;-72
2021/12/14 03:29:16;;;;;;;;;;;;;;;;;;2208433;67;1592;-72
2021/12/14 03:31:51;;;;;;;;;;;;;;;;;;2207841;59;1595;-72
2021/12/14 03:34:26;;;;;;;;;;;;;;;;;;2207990;59;1190;-72
2021/12/14 03:37:01;;;;;;;;;;;;;;;;;;2207860;67;1133;-72
2021/12/14 03:39:39;;;;;;;;;;;;;;;;;;2207670;59;1191;-72
2021/12/14 03:42:13;;;;;;;;;;;;;;;;;;2206967;59;1188;-72
2021/12/14 03:44:48;;;;;;;;;;;;;;;;;;2208004;67;1939;-72
2021/12/14 03:47:22;;;;;;;;;;;;;;;;;;2207494;59;1203;-72
2021/12/14 03:49:57;;;;;;;;;;;;;;;;;;2207364;59;1181;-72
2021/12/14 03:52:32;;;;;;;;;;;;;;;;;;2207734;67;1143;-72
2021/12/14 03:55:12;;;;;;;;;;;;;;;;;;2208603;67;1230;-72
2021/12/14 03:57:46;;;;;;;;;;;;;;;;;;2207365;59;1084;-72
2021/12/14 04:00:20;;;;;;;;;;;;;;;;;;2208336;59;1234;-72
2021/12/14 04:02:55;;;;;;;;;;;;;;;;;;2207682;59;1929;-72
2021/12/14 04:05:28;;;;;;;;;;;;;;;;;;2207991;67;1201;-72
2021/12/14 04:08:01;;;;;;;;;;;;;;;;;;2207800;67;1129;-72
2021/12/14 04:10:39;;;;;;;;;;;;;;;;;;2208163;59;1210;-72
2021/12/14 04:13:16;;;;;;;;;;;;;;;;;;2207410;59;1279;-72
2021/12/14 04:15:50;;;;;;;;;;;;;;;;;;2207673;59;1410;-72
2021/12/14 04:18:23;;;;;;;;;;;;;;;;;;2207903;59;1430;-72
2021/12/14 04:20:58;;;;;;;;;;;;;;;;;;2207852;59;1681;-72
2021/12/14 04:23:33;;;;;;;;;;;;;;;;;;2207578;59;1992;-72
2021/12/14 04:26:10;;;;;;;;;;;;;;;;;;2207856;67;1213;-72
2021/12/14 04:28:45;;;;;;;;;;;;;;;;;;2207620;59;1138;-72
2021/12/14 04:31:18;;;;;;;;;;;;;;;;;;2206976;59;1543;-72
2021/12/14 04:33:53;;;;;;;;;;;;;;;;;;2205046;67;1459;-72
2021/12/14 04:36:29;;;;;;;;;;;;;;;;;;2207806;59;1203;-72
2021/12/14 04:39:29;;;;;;;;;;;;;;;;;;2207822;59;1159;-72
2021/12/14 04:53:38;;;;;;;;;;;;;;;;;;2207493;67;1082;-72
2021/12/14 04:56:13;;;;;;;;;;;;;;;;;;2208225;67;1263;-72
2021/12/14 04:58:51;;;;;;;;;;;;;;;;;;2207663;67;1319;-72
2021/12/14 05:01:25;;;;;;;;;;;;;;;;;;2208122;59;1362;-72
2021/12/14 05:03:59;;;;;;;;;;;;;;;;;;2207142;67;1948;-72
2021/12/14 05:06:45;;;;;;;;;;;;;;;;;;2206000;67;1199;-72
2021/12/14 05:09:21;;;;;;;;;;;;;;;;;;2207226;67;1217;-74
2021/12/14 05:11:56;;;;;;;;;;;;;;;;;;2207494;59;1188;-72
2021/12/14 05:14:32;;;;;;;;;;;;;;;;;;2207352;59;1259;-72
2021/12/14 05:17:07;;;;;;;;;;;;;;;;;;2207823;67;1193;-72
2021/12/14 05:19:42;;;;;;;;;;;;;;;;;;2207548;59;1501;-72
2021/12/14 05:22:16;;;;;;;;;;;;;;;;;;2207550;59;1271;-72
2021/12/14 05:24:51;;;;;;;;;;;;;;;;;;2207004;67;1924;-72
2021/12/14 05:27:28;;;;;;;;;;;;;;;;;;2207324;59;1087;-72
2021/12/14 05:30:08;;;;;;;;;;;;;;;;;;2207440;59;1420;-72
2021/12/14 05:32:42;;;;;;;;;;;;;;;;;;2207257;59;1241;-72
2021/12/14 05:35:16;;;;;;;;;;;;;;;;;;2207673;67;1068;-72
2021/12/14 05:37:52;;;;;;;;;;;;;;;;;;2207468;67;1248;-72
2021/12/14 05:40:41;;;;;;;;;;;;;;;;;;2205816;67;1847;-72
2021/12/14 05:43:13;;;;;;;;;;;;;;;;;;2207736;67;1934;-72
2021/12/14 05:45:51;;;;;;;;;;;;;;;;;;2207803;59;1525;-72
2021/12/14 05:48:26;;;;;;;;;;;;;;;;;;2207303;67;1224;-72
2021/12/14 05:51:01;;;;;;;;;;;;;;;;;;2208335;59;1129;-72
2021/12/14 05:53:35;;;;;;;;;;;;;;;;;;2207253;59;1154;-72
2021/12/14 05:56:10;;;;;;;;;;;;;;;;;;2208138;59;1113;-72
2021/12/14 05:58:44;;;;;;;;;;;;;;;;;;2207217;59;1226;-72
2021/12/14 06:01:21;;;;;;;;;;;;;;;;;;2208339;59;1270;-72
2021/12/14 06:03:56;;;;;;;;;;;;;;;;;;2207829;59;1925;-72
2021/12/14 06:06:30;;;;;;;;;;;;;;;;;;2208132;59;1277;-72
2021/12/14 06:09:06;;;;;;;;;;;;;;;;;;2207162;59;1260;-72
2021/12/14 06:11:40;;;;;;;;;;;;;;;;;;2208093;59;1342;-72
2021/12/14 06:14:16;;;;;;;;;;;;;;;;;;2207214;59;1231;-72
2021/12/14 06:16:53;;;;;;;;;;;;;;;;;;2207620;59;1283;-72
2021/12/14 06:19:28;;;;;;;;;;;;;;;;;;2207303;67;1506;-72
2021/12/14 06:22:03;;;;;;;;;;;;;;;;;;2207799;59;1189;-72
2021/12/14 06:24:38;;;;;;;;;;;;;;;;;;2207364;59;1928;-72
2021/12/14 06:27:13;;;;;;;;;;;;;;;;;;2208342;67;1268;-72
2021/12/14 06:29:47;;;;;;;;;;;;;;;;;;2206868;59;1301;-71
2021/12/14 06:32:24;;;;;;;;;;;;;;;;;;2207955;59;1611;-72
2021/12/14 06:34:58;;;;;;;;;;;;;;;;;;2207912;59;1199;-72
2021/12/14 06:40:31;;;;;;;;;;;;;;;;;;2207512;67;1258;-72
2021/12/14 06:43:06;;;;;;;;;;;;;;;;;;2208020;67;1118;-72
2021/12/14 06:45:40;;;;;;;;;;;;;;;;;;2207212;59;1961;-72
2021/12/14 06:48:20;;;;;;;;;;;;;;;;;;2207700;59;1117;-72
2021/12/14 06:50:54;;;;;;;;;;;;;;;;;;2208713;59;1104;-72
2021/12/14 06:53:28;;;;;;;;;;;;;;;;;;2209513;67;1098;-72
2021/12/14 06:56:03;;;;;;;;;;;;;;;;;;2208246;67;1101;-72
2021/12/14 06:58:38;;;;;;;;;;;;;;;;;;2207883;59;1606;-72
2021/12/14 07:01:12;;;;;;;;;;;;;;;;;;2207695;59;1370;-72
2021/12/14 07:03:49;;;;;;;;;;;;;;;;;;2207621;67;1934;-72
2021/12/14 07:06:25;;;;;;;;;;;;;;;;;;2207736;67;1221;-72
2021/12/14 07:09:00;;;;;;;;;;;;;;;;;;2206794;59;1201;-71
2021/12/14 07:11:34;;;;;;;;;;;;;;;;;;2208135;59;1255;-71
2021/12/14 07:14:22;;;;;;;;;;;;;;;;;;2208410;59;1282;-71
2021/12/14 07:16:56;;;;;;;;;;;;;;;;;;2208171;59;1244;-71
2021/12/14 07:19:42;;;;;;;;;;;;;;;;;;2208117;59;1493;-71
2021/12/14 07:22:35;;;;;;;;;;;;;;;;;;2208833;67;1402;-71
2021/12/14 07:25:12;;;;;;;;;;;;;;;;;;2207922;59;1981;-71
2021/12/14 07:27:45;;;;;;;;;;;;;;;;;;2207703;67;1207;-72
2021/12/14 07:30:21;;;;;;;;;;;;;;;;;;2207798;59;1529;-74
2021/12/14 07:32:59;;;;;;;;;;;;;;;;;;2208026;67;1122;-74
2021/12/14 07:35:40;;;;;;;;;;;;;;;;;;2207696;59;1102;-74
2021/12/14 07:38:41;;;;;;;;;;;;;;;;;;2208051;67;1106;-74
2021/12/14 07:41:24;;;;;;;;;;;;;;;;;;2201931;59;1158;-71
2021/12/14 07:43:59;;;;;;;;;;;;;;;;;;2207128;59;1927;-72
2021/12/14 07:46:35;;;;;;;;;;;;;;;;;;2207665;67;1102;-71
2021/12/14 07:49:10;;;;;;;;;;;;;;;;;;2209745;59;3664;-71
2021/12/14 07:51:47;;;;;;;;;;;;;;;;;;2206105;59;1261;-70
2021/12/14 07:54:23;;;;;;;;;;;;;;;;;;2206185;59;1142;-71
2021/12/14 07:57:01;;;;;;;;;;;;;;;;;;2207854;67;1205;-71
2021/12/14 07:59:36;;;;;;;;;;;;;;;;;;2207142;59;1314;-71
2021/12/14 08:02:13;;;;;;;;;;;;;;;;;;2206394;59;1192;-71
2021/12/14 08:04:49;;;;;;;;;;;;;;;;;;2206126;67;1926;-71
2021/12/14 08:07:27;;;;;;;;;;;;;;;;;;2208294;59;1219;-71
2021/12/14 08:10:08;;;;;;;;;;;;;;;;;;2206751;59;2336;-70
2021/12/14 08:12:42;;;;;;;;;;;;;;;;;;2208222;59;1421;-70
2021/12/14 08:15:22;;;;;;;;;;;;;;;;;;2206283;59;2239;-69
2021/12/14 08:18:05;;;;;;;;;;;;;;;;;;2207632;60;1387;-71
2021/12/14 08:20:41;;;;;;;;;;;;;;;;;;2206661;59;1701;-71
2021/12/14 08:23:19;;;;;;;;;;;;;;;;;;2206173;59;2221;-71
2021/12/14 08:25:54;;;;;;;;;;;;;;;;;;2206308;59;1976;-71
2021/12/14 08:28:28;;;;;;;;;;;;;;;;;;2204856;59;1851;-71
2021/12/14 08:31:03;;;;;;;;;;;;;;;;;;2207103;59;1490;-71
2021/12/14 08:33:36;;;;;;;;;;;;;;;;;;2206893;59;1154;-71
2021/12/14 08:36:15;;;;;;;;;;;;;;;;;;2208196;67;1110;-71
2021/12/14 08:39:02;;;;;;;;;;;;;;;;;;2206598;59;1675;-70
2021/12/14 08:41:35;;;;;;;;;;;;;;;;;;2205983;59;2071;-71
2021/12/14 08:44:12;;;;;;;;;;;;;;;;;;2206835;59;1937;-71
2021/12/14 08:46:49;;;;;;;;;;;;;;;;;;2207530;59;2281;-70
2021/12/14 08:49:38;;;;;;;;;;;;;;;;;;2206432;59;1636;-71
2021/12/14 08:52:12;;;;;;;;;;;;;;;;;;2206973;67;1318;-70
2021/12/14 08:54:48;;;;;;;;;;;;;;;;;;2207286;59;1200;-71
2021/12/14 08:57:23;;;;;;;;;;;;;;;;;;2207051;67;1074;-71
2021/12/14 08:59:58;;;;;;;;;;;;;;;;;;2205318;59;2232;-71
2021/12/14 09:02:32;;;;;;;;;;;;;;;;;;2206553;59;2693;-71
2021/12/14 09:05:09;;;;;;;;;;;;;;;;;;2205846;59;2126;-71
2021/12/14 09:07:43;;;;;;;;;;;;;;;;;;2203497;59;1507;-70
2021/12/14 09:10:21;;;;;;;;;;;;;;;;;;2206403;59;2194;-71
2021/12/14 09:12:59;;;;;;;;;;;;;;;;;;2206798;59;1162;-71
2021/12/14 09:15:35;;;;;;;;;;;;;;;;;;2205702;59;1153;-71
2021/12/14 09:18:09;;;;;;;;;;;;;;;;;;2206475;67;1300;-70
2021/12/14 09:20:45;;;;;;;;;;;;;;;;;;2206050;59;1562;-70
2021/12/14 09:23:22;;;;;;;;;;;;;;;;;;2206587;59;1608;-70
2021/12/14 09:26:07;;;;;;;;;;;;;;;;;;;;;
2021/12/14 09:28:41;;;;;;;;;;;;;;;;;;2205497;59;1231;-70
2021/12/14 09:31:19;;;;;;;;;;;;;;;;;;2202487;59;1589;-70
2021/12/14 09:33:54;;;;;;;;;;;;;;;;;;2207411;59;1308;-70
2021/12/14 09:36:29;;;;;;;;;;;;;;;;;;2204482;59;1623;-70
2021/12/14 09:39:08;;;;;;;;;;;;;;;;;;2205493;59;2137;-70
2021/12/14 09:41:45;;;;;;;;;;;;;;;;;;2206525;59;2427;-71
2021/12/14 09:44:20;;;;;;;;;;;;;;;;;;2205672;59;1702;-71
2021/12/14 09:46:54;;;;;;;;;;;;;;;;;;2205797;59;2565;-71
2021/12/14 09:49:47;;;;;;;;;;;;;;;;;;2204346;59;2404;-71
2021/12/14 09:52:22;;;;;;;;;;;;;;;;;;2206757;59;1298;-70
2021/12/14 09:54:57;;;;;;;;;;;;;;;;;;2205926;59;2158;-71
2021/12/14 09:57:35;;;;;;;;;;;;;;;;;;2206065;59;2800;-70
2021/12/14 10:00:12;;;;;;;;;;;;;;;;;;2206480;59;1502;-69
2021/12/14 10:02:46;;;;;;;;;;;;;;;;;;2205455;59;2206;-70
2021/12/14 10:05:21;;;;;;;;;;;;;;;;;;2205037;59;2224;-70
2021/12/14 10:07:55;;;;;;;;;;;;;;;;;;2205871;59;1409;-69
2021/12/14 10:10:31;;;;;;;;;;;;;;;;;;2204810;59;2571;-70
2021/12/14 10:13:07;;;;;;;;;;;;;;;;;;2206674;59;1188;-70
2021/12/14 10:15:42;;;;;;;;;;;;;;;;;;2206198;59;1701;-70
2021/12/14 10:18:17;;;;;;;;;;;;;;;;;;2206471;59;1286;-70
2021/12/14 10:20:53;;;;;;;;;;;;;;;;;;2205019;59;2229;-70
2021/12/14 10:23:27;;;;;;;;;;;;;;;;;;2205148;59;1319;-71
2021/12/14 10:26:07;;;;;;;;;;;;;;;;;;2206135;67;1992;-70
2021/12/14 10:28:45;;;;;;;;;;;;;;;;;;2205941;59;2237;-71
2021/12/14 10:31:25;;;;;;;;;;;;;;;;;;2205082;59;1635;-70
2021/12/14 10:34:14;;;;;;;;;;;;;;;;;;2204781;59;1576;-70
2021/12/14 10:36:51;;;;;;;;;;;;;;;;;;2205797;59;1344;-70
2021/12/14 10:39:38;;;;;;;;;;;;;;;;;;2204724;59;1926;-70
2021/12/14 10:45:08;;;;;;;;;;;;;;;;;;2204556;59;1932;-70
2021/12/14 10:47:45;;;;;;;;;;;;;;;;;;2206248;67;2828;-70
2021/12/14 10:50:20;;;;;;;;;;;;;;;;;;2205962;59;2626;-70
2021/12/14 10:52:56;;;;;;;;;;;;;;;;;;2206443;67;1556;-70
2021/12/14 10:58:29;;;;;;;;;;;;;;;;;;2206588;59;1128;-70
2021/12/14 11:01:07;;;;;;;;;;;;;;;;;;2207016;67;1256;-71
2021/12/14 11:03:47;;;;;;;;;;;;;;;;;;2206378;59;1736;-70
2021/12/14 11:06:27;;;;;;;;;;;;;;;;;;2206275;67;1991;-70
2021/12/14 11:09:39;;;;;;;;;;;;;;;;;;2207270;59;1710;-70
2021/12/14 11:12:03;;;;;;;;;;;;;;;;;;2206286;67;2075;-70
2021/12/14 11:14:38;;;;;;;;;;;;;;;;;;2206988;59;1319;-70
2021/12/14 11:20:08;;;;;;;;;;;;;;;;;;2206848;59;1426;-70
2021/12/14 11:22:48;;;;;;;;;;;;;;;;;;2207462;59;1315;-70
2021/12/14 11:25:24;;;;;;;;;;;;;;;;;;2207004;67;1934;-70
2021/12/14 11:28:02;;;;;;;;;;;;;;;;;;2206067;59;1936;-70
2021/12/14 11:30:46;;;;;;;;;;;;;;;;;;2206273;59;1724;-70
2021/12/14 11:33:25;;;;;;;;;;;;;;;;;;2207390;59;1241;-70
2021/12/14 11:39:03;;;;;;;;;;;;;;;;;;2205133;59;1326;-70
2021/12/14 11:41:43;;;;;;;;;;;;;;;;;;2206504;59;1200;-70
2021/12/14 11:44:19;;;;;;;;;;;;;;;;;;2207571;59;1377;-70
2021/12/14 11:47:03;;;;;;;;;;;;;;;;;;2207593;60;1997;-70
2021/12/14 11:49:58;;;;;;;;;;;;;;;;;;2203634;59;2832;-70
2021/12/14 11:52:53;;;;;;;;;;;;;;;;;;2206408;59;1631;-70
2021/12/14 11:55:30;;;;;;;;;;;;;;;;;;2207136;67;1281;-70
2021/12/14 11:58:24;;;;;;;;;;;;;;;;;;2207620;67;1111;-70
2021/12/14 12:01:09;;;;;;;;;;;;;;;;;;2207172;67;1225;-70
2021/12/14 12:03:57;;;;;;;;;;;;;;;;;;2207268;67;1624;-70
2021/12/14 12:09:28;;;;;;;;;;;;;;;;;;2206819;59;1932;-70
2021/12/14 12:09:44;;;;;;;;;;;;;;;;;;2206474;59;2124;-70
2021/12/14 12:12:21;;;;;;;;;;;;;;;;;;2207695;59;1329;-70
2021/12/14 12:14:56;;;;;;;;;;;;;;;;;;2206117;59;1529;-70
2021/12/14 12:17:35;;;;;;;;;;;;;;;;;;2205860;67;1078;-70
2021/12/14 12:20:14;;;;;;;;;;;;;;;;;;2206403;59;1988;-70
2021/12/14 12:22:51;;;;;;;;;;;;;;;;;;2206444;67;1250;-70
2021/12/14 12:25:29;;;;;;;;;;;;;;;;;;2206193;59;1932;-70
2021/12/14 12:28:03;;;;;;;;;;;;;;;;;;2207011;67;1136;-70
2021/12/14 12:30:41;;;;;;;;;;;;;;;;;;2207579;59;1495;-70
2021/12/14 12:33:17;;;;;;;;;;;;;;;;;;2206734;59;1224;-70
2021/12/14 12:36:06;;;;;;;;;;;;;;;;;;2207018;59;1363;-70
2021/12/14 12:38:46;;;;;;;;;;;;;;;;;;2206223;59;1689;-70
2021/12/14 12:41:29;;;;;;;;;;;;;;;;;;2207542;67;1094;-70
2021/12/14 12:46:59;;;;;;;;;;;;;;;;;;2205109;59;2534;-70
2021/12/14 12:49:33;;;;;;;;;;;;;;;;;;2205967;59;2865;-71
2021/12/14 12:52:10;;;;;;;;;;;;;;;;;;2205555;59;2502;-70
2021/12/14 12:54:48;;;;;;;;;;;;;;;;;;2205693;59;1592;-70
2021/12/14 12:57:36;;;;;;;;;;;;;;;;;;2207606;59;2584;-70
2021/12/14 13:00:20;;;;;;;;;;;;;;;;;;2207999;67;1208;-71
2021/12/14 13:02:58;;;;;;;;;;;;;;;;;;2207799;59;1173;-70
2021/12/14 13:05:34;;;;;;;;;;;;;;;;;;2206542;67;1912;-70
2021/12/14 13:08:25;;;;;;;;;;;;;;;;;;2207012;59;1103;-70
2021/12/14 13:11:07;;;;;;;;;;;;;;;;;;2205635;67;1289;-70
2021/12/14 13:13:45;;;;;;;;;;;;;;;;;;2206892;59;1312;-70
2021/12/14 13:16:21;;;;;;;;;;;;;;;;;;2207529;67;1086;-70
2021/12/14 13:18:56;;;;;;;;;;;;;;;;;;2205916;59;1468;-70
2021/12/14 13:21:42;;;;;;;;;;;;;;;;;;2206306;59;1558;-70
2021/12/14 13:24:21;;;;;;;;;;;;;;;;;;2207023;59;1238;-70
2021/12/14 13:26:57;;;;;;;;;;;;;;;;;;2206524;67;1989;-70
2021/12/14 13:29:46;;;;;;;;;;;;;;;;;;2206599;59;1396;-70
2021/12/14 13:32:29;;;;;;;;;;;;;;;;;;2207255;59;1725;-70
2021/12/14 13:35:06;;;;;;;;;;;;;;;;;;2205942;59;1182;-70
2021/12/14 13:37:44;;;;;;;;;;;;;;;;;;2206893;59;2309;-71
2021/12/14 13:40:22;;;;;;;;;;;;;;;;;;2207141;59;1404;-70
2021/12/14 13:43:01;;;;;;;;;;;;;;;;;;2205457;67;1130;-70
2021/12/14 13:45:36;;;;;;;;;;;;;;;;;;2205239;59;1491;-70
2021/12/14 13:48:14;;;;;;;;;;;;;;;;;;2206006;67;1934;-70
2021/12/14 13:50:50;;;;;;;;;;;;;;;;;;2206249;59;2177;-70
2021/12/14 13:53:24;;;;;;;;;;;;;;;;;;2205923;59;2868;-70
2021/12/14 13:55:59;;;;;;;;;;;;;;;;;;2205790;59;2188;-70
2021/12/14 13:58:34;;;;;;;;;;;;;;;;;;2205512;59;1786;-70
2021/12/14 14:01:09;;;;;;;;;;;;;;;;;;2201695;59;2456;-70
2021/12/14 14:03:48;;;;;;;;;;;;;;;;;;2206489;59;1628;-70
2021/12/14 14:06:22;;;;;;;;;;;;;;;;;;2209646;53;3636;-70
2021/12/14 14:08:57;;;;;;;;;;;;;;;;;;2211869;59;2379;-70
2021/12/14 14:11:32;;;;;;;;;;;;;;;;;;2211529;59;2926;-70
2021/12/14 14:14:07;;;;;;;;;;;;;;;;;;2212574;59;2562;-70
2021/12/14 14:16:42;;;;;;;;;;;;;;;;;;2211637;59;1755;-70
2021/12/14 14:19:18;;;;;;;;;;;;;;;;;;2214236;59;1462;-70
2021/12/14 14:21:54;;;;;;;;;;;;;;;;;;2213678;59;1723;-70
2021/12/14 14:24:28;;;;;;;;;;;;;;;;;;2212948;59;1239;-70
2021/12/14 14:27:02;;;;;;;;;;;;;;;;;;2212629;59;2823;-70
2021/12/14 14:29:42;;;;;;;;;;;;;;;;;;2213184;59;1473;-70
2021/12/14 14:32:29;;;;;;;;;;;;;;;;;;2213176;59;1721;-70
2021/12/14 14:35:07;;;;;;;;;;;;;;;;;;2213808;59;1491;-70
2021/12/14 14:37:41;;;;;;;;;;;;;;;;;;2212122;67;1283;-70
2021/12/14 14:40:16;;;;;;;;;;;;;;;;;;2213378;59;1136;-70
2021/12/14 14:42:52;;;;;;;;;;;;;;;;;;2214058;67;1066;-70
2021/12/14 14:45:27;;;;;;;;;;;;;;;;;;2213797;67;1218;-70
2021/12/14 14:48:00;;;;;;;;;;;;;;;;;;2213870;67;1936;-70
2021/12/14 14:50:37;;;;;;;;;;;;;;;;;;2213604;59;1162;-70
2021/12/14 14:53:12;;;;;;;;;;;;;;;;;;2212237;59;2849;-70
2021/12/14 14:55:48;;;;;;;;;;;;;;;;;;2212585;59;2024;-70
2021/12/14 14:58:22;;;;;;;;;;;;;;;;;;2213974;59;1383;-70
2021/12/14 15:01:01;;;;;;;;;;;;;;;;;;2212930;59;1785;-70
2021/12/14 15:03:37;;;;;;;;;;;;;;;;;;2213325;59;1202;-70
2021/12/14 15:06:15;;;;;;;;;;;;;;;;;;2213367;59;2359;-70
2021/12/14 15:08:51;;;;;;;;;;;;;;;;;;2214295;59;1299;-70
2021/12/14 15:11:28;;;;;;;;;;;;;;;;;;2214875;59;1301;-70
2021/12/14 15:14:26;;;;;;;;;;;;;;;;;;2212802;67;1130;-70
2021/12/14 15:17:01;;;;;;;;;;;;;;;;;;2211959;67;1238;-70
2021/12/14 15:19:38;;;;;;;;;;;;;;;;;;2213103;59;1516;-70
2021/12/14 15:22:16;;;;;;;;;;;;;;;;;;2213839;59;1112;-70
2021/12/14 15:24:56;;;;;;;;;;;;;;;;;;2213643;59;1424;-70
2021/12/14 15:27:50;;;;;;;;;;;;;;;;;;2212851;59;1977;-70
2021/12/14 15:30:29;;;;;;;;;;;;;;;;;;2213696;59;1599;-70
2021/12/14 15:33:07;;;;;;;;;;;;;;;;;;2213608;67;1105;-70
2021/12/14 15:35:51;;;;;;;;;;;;;;;;;;2212632;67;1222;-70
2021/12/14 15:38:33;;;;;;;;;;;;;;;;;;2212154;67;2159;-70
2021/12/14 15:41:12;;;;;;;;;;;;;;;;;;2214749;59;1407;-70
2021/12/14 15:43:53;;;;;;;;;;;;;;;;;;2214717;59;1257;-70
2021/12/14 15:46:28;;;;;;;;;;;;;;;;;;2212919;67;2013;-70
2021/12/14 15:49:08;;;;;;;;;;;;;;;;;;2213274;67;1222;-70
2021/12/14 15:51:43;;;;;;;;;;;;;;;;;;2212852;59;1703;-70
2021/12/14 15:54:22;;;;;;;;;;;;;;;;;;2210871;59;2968;-70
2021/12/14 15:56:57;;;;;;;;;;;;;;;;;;2212469;59;1102;-70
2021/12/14 15:59:31;;;;;;;;;;;;;;;;;;2213068;67;1302;-70
2021/12/14 16:02:05;;;;;;;;;;;;;;;;;;2212350;59;2421;-70
2021/12/14 16:04:41;;;;;;;;;;;;;;;;;;2212160;59;1735;-70
2021/12/14 16:07:15;;;;;;;;;;;;;;;;;;2212353;59;1920;-70
2021/12/14 16:09:57;;;;;;;;;;;;;;;;;;2211648;59;2434;-70
2021/12/14 16:15:21;;;;;;;;;;;;;;;;;;2211720;67;1164;-70
2021/12/14 16:17:56;;;;;;;;;;;;;;;;;;2212362;59;1799;-70
2021/12/14 16:20:34;;;;;;;;;;;;;;;;;;2212056;59;1563;-70
2021/12/14 16:23:08;;;;;;;;;;;;;;;;;;2211272;59;1554;-71
2021/12/14 16:25:45;;;;;;;;;;;;;;;;;;2212279;59;2304;-70
2021/12/14 16:28:20;;;;;;;;;;;;;;;;;;2213968;59;1933;-70
2021/12/14 16:30:55;;;;;;;;;;;;;;;;;;2214364;59;1556;-70
2021/12/14 16:33:29;;;;;;;;;;;;;;;;;;2214989;59;1199;-69
2021/12/14 16:36:06;;;;;;;;;;;;;;;;;;2213006;59;2518;-70
2021/12/14 16:38:41;;;;;;;;;;;;;;;;;;2212400;59;1693;-70
2021/12/14 16:41:19;;;;;;;;;;;;;;;;;;2211781;59;2218;-70
2021/12/14 16:43:56;;;;;;;;;;;;;;;;;;2212822;59;1652;-70
2021/12/14 16:46:30;;;;;;;;;;;;;;;;;;2211343;59;1221;-70
2021/12/14 16:49:05;;;;;;;;;;;;;;;;;;2213353;67;1929;-70
2021/12/14 16:51:38;;;;;;;;;;;;;;;;;;2212448;59;1169;-70
2021/12/14 16:54:13;;;;;;;;;;;;;;;;;;2212340;59;2646;-70
2021/12/14 16:56:50;;;;;;;;;;;;;;;;;;2212006;59;3110;-70
2021/12/14 16:59:25;;;;;;;;;;;;;;;;;;2212224;59;1219;-70
2021/12/14 17:02:02;;;;;;;;;;;;;;;;;;2212179;59;1345;-70
2021/12/14 17:04:36;;;;;;;;;;;;;;;;;;2213438;59;1830;-70
2021/12/14 17:07:11;;;;;;;;;;;;;;;;;;2212826;59;1923;-70
2021/12/14 17:09:44;;;;;;;;;;;;;;;;;;2212995;67;2147;-70
2021/12/14 17:12:22;;;;;;;;;;;;;;;;;;2211716;59;1279;-70
2021/12/14 17:14:58;;;;;;;;;;;;;;;;;;2211713;59;1600;-70
2021/12/14 17:17:35;;;;;;;;;;;;;;;;;;2213114;59;1833;-70
2021/12/14 17:20:12;;;;;;;;;;;;;;;;;;2213456;59;1489;-70
2021/12/14 17:22:45;;;;;;;;;;;;;;;;;;2212530;59;1248;-70
2021/12/14 17:25:21;;;;;;;;;;;;;;;;;;2211993;59;2647;-69
2021/12/14 17:27:57;;;;;;;;;;;;;;;;;;2210151;59;2849;-70
2021/12/14 17:30:31;;;;;;;;;;;;;;;;;;2211194;59;1870;-70
2021/12/14 17:33:04;;;;;;;;;;;;;;;;;;2212191;67;1228;-70
2021/12/14 17:35:40;;;;;;;;;;;;;;;;;;2211830;67;1937;-70
2021/12/14 17:38:13;;;;;;;;;;;;;;;;;;2211666;59;2376;-70
2021/12/14 17:40:47;;;;;;;;;;;;;;;;;;2212709;59;2695;-70
2021/12/14 17:43:23;;;;;;;;;;;;;;;;;;2213708;64;1282;-70
2021/12/14 17:45:56;;;;;;;;;;;;;;;;;;2212652;67;1868;-70
2021/12/14 17:48:34;;;;;;;;;;;;;;;;;;2212038;67;1937;-70
2021/12/14 17:51:11;;;;;;;;;;;;;;;;;;2211583;67;1794;-70
2021/12/14 17:53:44;;;;;;;;;;;;;;;;;;2213296;67;1810;-70
2021/12/14 17:56:17;;;;;;;;;;;;;;;;;;2213670;59;1269;-70
2021/12/14 17:58:53;;;;;;;;;;;;;;;;;;2211570;59;1911;-70
2021/12/14 18:01:27;;;;;;;;;;;;;;;;;;2213223;59;1811;-70
2021/12/14 18:04:01;;;;;;;;;;;;;;;;;;2211201;59;1826;-70
2021/12/14 18:06:34;;;;;;;;;;;;;;;;;;2213866;59;1247;-70
2021/12/14 18:09:09;;;;;;;;;;;;;;;;;;2212798;59;2003;-70
2021/12/14 18:11:43;;;;;;;;;;;;;;;;;;2212607;67;1881;-70
2021/12/14 18:14:25;;;;;;;;;;;;;;;;;;2212620;67;1897;-70
2021/12/14 18:17:06;;;;;;;;;;;;;;;;;;2213280;59;1252;-70
2021/12/14 18:19:41;;;;;;;;;;;;;;;;;;2213764;59;1881;-70
2021/12/14 18:22:16;;;;;;;;;;;;;;;;;;2212058;59;2419;-70
2021/12/14 18:24:51;;;;;;;;;;;;;;;;;;2212736;59;2472;-70
2021/12/14 18:27:28;;;;;;;;;;;;;;;;;;2213060;59;2339;-70
2021/12/14 18:30:09;;;;;;;;;;;;;;;;;;2211549;59;1931;-70
2021/12/14 18:32:44;;;;;;;;;;;;;;;;;;2215226;67;1202;-70
2021/12/14 18:35:18;;;;;;;;;;;;;;;;;;2212925;59;1980;-70
2021/12/14 18:37:57;;;;;;;;;;;;;;;;;;2215019;67;1867;-70
2021/12/14 18:40:43;;;;;;;;;;;;;;;;;;2213147;59;2751;-70
2021/12/14 18:43:18;;;;;;;;;;;;;;;;;;2212930;59;1291;-70
2021/12/14 18:46:03;;;;;;;;;;;;;;;;;;2212810;67;1864;-70